Time,TemperatureF,DewpointF,PressureIn,WindDirection,WindDirectionDegrees,WindSpeedMPH,WindSpeedGustMPH,Humidity,HourlyPrecipIn,Conditions,Clouds,dailyrainin,SoftwareType,DateUTC
2013-05-04 07:27:00,56.5,9.3,30.30,SSE,159,3.6,5.4,15,0.00,,,0.00,WUHU216WMR968SP,2013-05-04 11:27:00,
2013-05-04 07:28:00,56.8,9.5,30.30,SSW,201,4.0,5.4,15,0.00,,,0.00,WUHU216WMR968SP,2013-05-04 11:28:00,
2013-05-04 07:33:00,56.1,9.0,30.30,SE,142,4.9,6.7,15,0.00,,,0.00,WUHU216WMR968SP,2013-05-04 11:33:00,
2013-05-04 07:38:00,56.1,9.0,30.30,SE,132,5.4,6.7,15,0.00,,,0.00,WUHU216WMR968SP,2013-05-04 11:38:00,
2013-05-04 07:43:00,55.9,8.8,30.30,ESE,121,4.9,6.3,15,0.00,,,0.00,WUHU216WMR968SP,2013-05-04 11:43:00,
2013-05-04 07:48:00,56.1,9.0,30.30,ESE,121,4.5,6.3,15,0.00,,,0.00,WUHU216WMR968SP,2013-05-04 11:48:00,
2013-05-04 07:53:00,55.9,3.8,30.30,SE,140,4.9,6.3,12,0.00,,,0.00,WUHU216WMR968SP,2013-05-04 11:53:00,
2013-05-04 07:58:00,55.6,8.6,30.30,ESE,111,4.5,6.3,15,0.00,,,0.00,WUHU216WMR968SP,2013-05-04 11:58:00,
2013-05-04 08:03:00,54.9,8.0,30.30,ESE,120,4.5,8.1,15,0.00,,,0.00,WUHU216WMR968SP,2013-05-04 12:03:00,
2013-05-04 08:08:00,54.9,8.0,30.30,ESE,120,4.9,8.1,15,0.00,,,0.00,WUHU216WMR968SP,2013-05-04 12:08:00,
2013-05-04 08:13:00,54.7,7.9,30.30,SE,126,4.5,6.3,15,0.00,,,0.00,WUHU216WMR968SP,2013-05-04 12:13:00,
2013-05-04 08:18:00,54.1,7.4,30.30,SSE,163,4.5,6.3,15,0.00,,,0.00,WUHU216WMR968SP,2013-05-04 12:18:00,
2013-05-04 08:24:00,54.0,11.4,30.33,ESE,118,4.0,6.3,18,0.00,,,0.00,WUHU216WMR968SP,2013-05-04 12:24:00,
2013-05-04 08:29:00,53.6,11.0,30.33,SE,124,4.9,5.8,18,0.00,,,0.00,WUHU216WMR968SP,2013-05-04 12:29:00,
2013-05-04 08:34:00,54.7,11.9,30.33,SE,145,4.9,6.3,18,0.00,,,0.00,WUHU216WMR968SP,2013-05-04 12:34:00,
2013-05-04 08:39:00,55.8,8.7,30.33,South,176,5.4,7.2,15,0.00,,,0.00,WUHU216WMR968SP,2013-05-04 12:39:00,
2013-05-04 08:44:00,55.4,8.4,30.33,SSE,158,4.5,7.2,15,0.00,,,0.00,WUHU216WMR968SP,2013-05-04 12:44:00,
2013-05-04 08:49:00,55.4,8.4,30.33,SE,125,4.9,6.3,15,0.00,,,0.00,WUHU216WMR968SP,2013-05-04 12:49:00,
2013-05-04 08:54:00,56.8,9.5,30.33,SSE,165,5.4,7.2,15,0.00,,,0.00,WUHU216WMR968SP,2013-05-04 12:54:00,
2013-05-04 08:59:00,56.1,4.0,30.33,SE,129,5.4,7.6,12,0.00,,,0.00,WUHU216WMR968SP,2013-05-04 12:59:00,
2013-05-04 09:04:00,54.9,4.8,30.33,SSE,152,5.8,7.6,13,0.00,,,0.00,WUHU216WMR968SP,2013-05-04 13:04:00,
2013-05-04 09:09:00,55.4,3.4,30.33,SE,125,5.8,8.1,12,0.00,,,0.00,WUHU216WMR968SP,2013-05-04 13:09:00,
2013-05-04 09:14:00,55.0,4.9,30.33,South,171,4.5,8.1,13,0.00,,,0.00,WUHU216WMR968SP,2013-05-04 13:14:00,
2013-05-04 09:19:00,57.0,4.7,30.33,SSE,165,4.5,8.1,12,0.00,,,0.00,WUHU216WMR968SP,2013-05-04 13:19:00,
2013-05-04 09:24:00,59.7,0.4,30.33,ESE,120,4.5,8.1,9,0.00,,,0.00,WUHU216WMR968SP,2013-05-04 13:24:00,
2013-05-04 09:29:00,56.5,0.3,30.33,SE,126,5.4,8.1,10,0.00,,,0.00,WUHU216WMR968SP,2013-05-04 13:29:00,
2013-05-04 09:34:00,55.9,-0.2,30.33,ESE,121,5.8,8.1,10,0.00,,,0.00,WUHU216WMR968SP,2013-05-04 13:34:00,
2013-05-04 09:39:00,56.8,0.5,30.33,SSE,151,5.4,8.1,10,0.00,,,0.00,WUHU216WMR968SP,2013-05-04 13:39:00,
2013-05-04 09:44:00,58.1,-0.8,30.33,SE,137,4.9,8.1,9,0.00,,,0.00,WUHU216WMR968SP,2013-05-04 13:44:00,
2013-05-04 09:49:00,57.7,-1.1,30.33,SE,125,4.5,8.3,9,0.00,,,0.00,WUHU216WMR968SP,2013-05-04 13:49:00,
2013-05-04 13:25:00,52.9,-0.4,30.33,SSW,194,4.9,4.9,11,0.00,,,0.00,WUHU216WMR968SP,2013-05-04 17:25:00,
2013-05-04 13:30:00,53.1,-0.3,30.33,SSE,161,5.8,9.6,11,0.00,,,0.00,WUHU216WMR968SP,2013-05-04 17:30:00,
2013-05-04 13:35:00,53.2,-0.2,30.33,South,173,4.5,9.6,11,0.00,,,0.00,WUHU216WMR968SP,2013-05-04 17:35:00,
2013-05-04 13:40:00,53.1,-0.3,30.30,South,171,6.3,8.7,11,0.00,,,0.00,WUHU216WMR968SP,2013-05-04 17:40:00,
2013-05-04 13:45:00,53.1,-0.3,30.30,SSW,192,6.7,8.7,11,0.00,,,0.00,WUHU216WMR968SP,2013-05-04 17:45:00,
2013-05-04 13:50:00,53.4,0.0,30.30,South,188,6.3,8.3,11,0.00,,,0.00,WUHU216WMR968SP,2013-05-04 17:50:00,
2013-05-04 13:55:00,53.6,-2.0,30.33,SSE,149,5.4,8.3,10,0.00,,,0.00,WUHU216WMR968SP,2013-05-04 17:55:00,
2013-05-04 14:00:00,53.6,-6.6,30.33,South,178,6.7,10.1,8,0.00,,,0.00,WUHU216WMR968SP,2013-05-04 18:00:00,
2013-05-04 14:05:00,53.8,-1.8,30.33,South,186,4.9,10.1,10,0.00,,,0.00,WUHU216WMR968SP,2013-05-04 18:05:00,
2013-05-04 14:10:00,53.6,-6.6,30.33,South,181,6.7,10.1,8,0.00,,,0.00,WUHU216WMR968SP,2013-05-04 18:10:00,
2013-05-04 14:15:00,53.8,-6.5,30.33,South,176,6.3,8.7,8,0.00,,,0.00,WUHU216WMR968SP,2013-05-04 18:15:00,
2013-05-04 14:20:00,53.6,-6.6,30.33,SSW,192,6.3,8.3,8,0.00,,,0.00,WUHU216WMR968SP,2013-05-04 18:20:00,
2013-05-04 14:25:00,53.4,-6.8,30.33,SSE,162,6.7,8.7,8,0.00,,,0.00,WUHU216WMR968SP,2013-05-04 18:25:00,
2013-05-04 14:30:00,53.4,-6.8,30.33,South,181,6.7,8.7,8,0.00,,,0.00,WUHU216WMR968SP,2013-05-04 18:30:00,
2013-05-04 14:35:00,53.6,-6.6,30.33,South,171,5.4,8.7,8,0.00,,,0.00,WUHU216WMR968SP,2013-05-04 18:35:00,
2013-05-04 14:40:00,53.2,-6.9,30.33,South,178,3.6,8.7,8,0.00,,,0.00,WUHU216WMR968SP,2013-05-04 18:40:00,
2013-05-04 14:45:00,53.4,-6.8,30.33,SSW,192,6.3,8.7,8,0.00,,,0.00,WUHU216WMR968SP,2013-05-04 18:45:00,
2013-05-04 14:50:00,53.8,-6.5,30.33,South,185,4.5,8.7,8,0.00,,,0.00,WUHU216WMR968SP,2013-05-04 18:50:00,
2013-05-04 14:55:00,54.0,-6.3,30.33,SSE,161,2.7,8.1,8,0.00,,,0.00,WUHU216WMR968SP,2013-05-04 18:55:00,
2013-05-04 15:00:00,53.8,-6.5,30.33,SSW,194,5.8,7.6,8,0.00,,,0.00,WUHU216WMR968SP,2013-05-04 19:00:00,
2013-05-04 15:05:00,53.8,-6.5,30.33,SSW,193,2.7,7.6,8,0.00,,,0.00,WUHU216WMR968SP,2013-05-04 19:05:00,
2013-05-04 15:10:00,54.1,-6.3,30.30,SSW,200,3.1,8.1,8,0.00,,,0.00,WUHU216WMR968SP,2013-05-04 19:10:00,
2013-05-04 15:15:00,54.1,-6.3,30.30,SSW,199,3.1,8.1,8,0.00,,,0.00,WUHU216WMR968SP,2013-05-04 19:15:00,
2013-05-04 15:20:00,54.0,-6.3,30.30,WNW,297,2.2,8.1,8,0.00,,,0.00,WUHU216WMR968SP,2013-05-04 19:20:00,
2013-05-04 15:25:00,53.8,-6.5,30.30,South,187,6.7,8.1,8,0.00,,,0.00,WUHU216WMR968SP,2013-05-04 19:25:00,
2013-05-04 15:30:00,53.4,-6.8,30.30,SSW,202,8.3,10.1,8,0.00,,,0.00,WUHU216WMR968SP,2013-05-04 19:30:00,
2013-05-04 15:35:00,53.4,-6.8,30.30,SSW,195,4.9,10.1,8,0.00,,,0.00,WUHU216WMR968SP,2013-05-04 19:35:00,
2013-05-04 15:40:00,53.8,-6.5,30.30,South,178,3.6,8.3,8,0.00,,,0.00,WUHU216WMR968SP,2013-05-04 19:40:00,
2013-05-04 15:45:00,53.6,-6.6,30.30,South,186,4.0,8.7,8,0.00,,,0.00,WUHU216WMR968SP,2013-05-04 19:45:00,
2013-05-04 15:50:00,53.6,-6.6,30.30,SSE,157,6.7,8.7,8,0.00,,,0.00,WUHU216WMR968SP,2013-05-04 19:50:00,
2013-05-04 15:55:00,54.0,-6.3,30.30,SE,143,2.7,8.7,8,0.00,,,0.00,WUHU216WMR968SP,2013-05-04 19:55:00,
2013-05-04 16:07:00,54.1,-6.3,30.30,SSE,168,4.9,10.1,8,0.00,,,0.00,WUHU216WMR968SP,2013-05-04 20:07:00,
2013-05-04 16:12:00,54.3,-6.1,30.30,SSE,168,4.9,9.2,8,0.00,,,0.00,WUHU216WMR968SP,2013-05-04 20:12:00,
2013-05-04 16:17:00,54.1,-6.3,30.30,South,184,4.9,9.6,8,0.00,,,0.00,WUHU216WMR968SP,2013-05-04 20:17:00,
2013-05-04 16:22:00,54.3,-6.1,30.30,South,190,5.4,9.6,8,0.00,,,0.00,WUHU216WMR968SP,2013-05-04 20:22:00,
2013-05-04 16:27:00,54.5,-6.0,30.30,South,190,6.3,8.7,8,0.00,,,0.00,WUHU216WMR968SP,2013-05-04 20:27:00,
2013-05-04 16:32:00,54.7,-5.8,30.30,South,189,7.6,10.1,8,0.00,,,0.00,WUHU216WMR968SP,2013-05-04 20:32:00,
2013-05-04 16:37:00,54.7,-5.8,30.30,South,170,5.8,11.0,8,0.00,,,0.00,WUHU216WMR968SP,2013-05-04 20:37:00,
2013-05-04 16:42:00,54.5,-6.0,30.30,South,173,7.6,11.0,8,0.00,,,0.00,WUHU216WMR968SP,2013-05-04 20:42:00,
2013-05-04 16:47:00,54.7,-5.8,30.30,South,181,4.5,10.1,8,0.00,,,0.00,WUHU216WMR968SP,2013-05-04 20:47:00,
2013-05-04 16:52:00,54.9,-5.7,30.30,South,180,6.3,10.1,8,0.00,,,0.00,WUHU216WMR968SP,2013-05-04 20:52:00,
2013-05-04 16:57:00,55.4,-8.0,30.30,SW,229,8.3,11.4,7,0.00,,,0.00,WUHU216WMR968SP,2013-05-04 20:57:00,
2013-05-04 17:02:00,55.9,-7.6,30.30,South,169,4.9,11.4,7,0.00,,,0.00,WUHU216WMR968SP,2013-05-04 21:02:00,
2013-05-04 17:07:00,56.3,-7.3,30.33,South,183,3.6,10.1,7,0.00,,,0.00,WUHU216WMR968SP,2013-05-04 21:07:00,
2013-05-04 17:12:00,56.7,-7.0,30.33,South,186,5.8,8.7,7,0.00,,,0.00,WUHU216WMR968SP,2013-05-04 21:12:00,
2013-05-04 17:17:00,56.8,-6.9,30.33,SSE,168,6.3,9.2,7,0.00,,,0.00,WUHU216WMR968SP,2013-05-04 21:17:00,
2013-05-04 17:22:00,57.0,-6.8,30.33,South,189,7.6,10.5,7,0.00,,,0.00,WUHU216WMR968SP,2013-05-04 21:22:00,
2013-05-04 17:27:00,56.8,-6.9,30.33,South,171,7.6,10.5,7,0.00,,,0.00,WUHU216WMR968SP,2013-05-04 21:27:00,
2013-05-04 17:32:00,56.8,-6.9,30.33,SSW,209,6.7,9.6,7,0.00,,,0.00,WUHU216WMR968SP,2013-05-04 21:32:00,
2013-05-04 17:37:00,57.4,-6.5,30.33,SSW,213,5.8,8.7,7,0.00,,,0.00,WUHU216WMR968SP,2013-05-04 21:37:00,
2013-05-04 17:42:00,57.7,-6.3,30.33,SSW,205,7.2,8.7,7,0.00,,,0.00,WUHU216WMR968SP,2013-05-04 21:42:00,
2013-05-04 17:47:00,58.3,-5.8,30.33,SSW,193,4.9,8.7,7,0.00,,,0.00,WUHU216WMR968SP,2013-05-04 21:47:00,
2013-05-04 17:51:00,59.0,-5.3,30.30,South,171,5.4,8.7,7,0.00,,,0.00,WUHU216WMR968SP,2013-05-04 21:51:00,
2013-05-04 17:52:00,58.8,-5.5,30.30,South,180,5.4,8.7,7,0.00,,,0.00,WUHU216WMR968SP,2013-05-04 21:52:00,
2013-05-04 17:53:00,59.2,-5.2,30.30,SSW,193,4.9,8.7,7,0.00,,,0.00,WUHU216WMR968SP,2013-05-04 21:53:00,
2013-05-04 17:54:00,59.0,-5.3,30.30,SSW,194,7.6,11.0,7,0.00,,,0.00,WUHU216WMR968SP,2013-05-04 21:54:00,
2013-05-04 17:55:00,59.4,-5.0,30.30,SSW,204,6.7,11.0,7,0.00,,,0.00,WUHU216WMR968SP,2013-05-04 21:55:00,
2013-05-04 17:56:00,59.4,-5.0,30.30,South,186,7.2,11.0,7,0.00,,,0.00,WUHU216WMR968SP,2013-05-04 21:56:00,
2013-05-04 17:57:00,59.4,-5.0,30.30,SW,219,5.4,11.0,7,0.00,,,0.00,WUHU216WMR968SP,2013-05-04 21:57:00,
2013-05-04 17:58:00,59.4,-5.0,30.30,South,179,4.5,11.0,7,0.00,,,0.00,WUHU216WMR968SP,2013-05-04 21:58:00,
2013-05-04 17:59:00,59.5,-5.0,30.30,SSW,192,5.8,11.0,7,0.00,,,0.00,WUHU216WMR968SP,2013-05-04 21:59:00,
2013-05-04 18:00:00,59.7,-4.8,30.30,South,184,5.4,11.0,7,0.00,,,0.00,WUHU216WMR968SP,2013-05-04 22:00:00,
2013-05-04 18:01:00,59.5,-5.0,30.30,SSW,195,4.5,11.0,7,0.00,,,0.00,WUHU216WMR968SP,2013-05-04 22:01:00,
2013-05-04 18:02:00,59.9,-4.7,30.30,South,186,3.6,11.0,7,0.00,,,0.00,WUHU216WMR968SP,2013-05-04 22:02:00,
2013-05-04 18:03:00,59.9,-4.7,30.30,South,190,5.8,11.0,7,0.00,,,0.00,WUHU216WMR968SP,2013-05-04 22:03:00,
2013-05-04 18:04:00,59.9,-4.7,30.30,SSW,203,5.8,10.1,7,0.00,,,0.00,WUHU216WMR968SP,2013-05-04 22:04:00,
2013-05-04 18:05:00,59.9,-4.7,30.30,South,179,6.3,10.1,7,0.00,,,0.00,WUHU216WMR968SP,2013-05-04 22:05:00,
2013-05-04 18:06:00,60.1,-4.5,30.30,South,187,4.0,8.7,7,0.00,,,0.00,WUHU216WMR968SP,2013-05-04 22:06:00,
2013-05-04 18:07:00,59.9,-4.7,30.30,South,178,4.0,8.7,7,0.00,,,0.00,WUHU216WMR968SP,2013-05-04 22:07:00,
2013-05-04 18:08:00,60.1,-4.5,30.30,South,189,6.7,10.1,7,0.00,,,0.00,WUHU216WMR968SP,2013-05-04 22:08:00,
2013-05-04 18:09:00,60.3,-4.4,30.30,SSW,192,4.5,10.1,7,0.00,,,0.00,WUHU216WMR968SP,2013-05-04 22:09:00,
2013-05-04 18:10:00,60.4,-4.3,30.30,South,170,4.5,10.1,7,0.00,,,0.00,WUHU216WMR968SP,2013-05-04 22:10:00,
2013-05-04 18:11:00,60.3,-4.4,30.30,SSW,199,5.4,10.1,7,0.00,,,0.00,WUHU216WMR968SP,2013-05-04 22:11:00,
2013-05-04 18:12:00,60.3,-4.4,30.30,SSW,198,5.4,10.1,7,0.00,,,0.00,WUHU216WMR968SP,2013-05-04 22:12:00,
2013-05-04 18:13:00,60.1,-4.5,30.30,South,189,4.5,10.1,7,0.00,,,0.00,WUHU216WMR968SP,2013-05-04 22:13:00,
2013-05-04 18:14:00,60.3,-4.4,30.30,SSW,201,3.6,10.1,7,0.00,,,0.00,WUHU216WMR968SP,2013-05-04 22:14:00,
2013-05-04 18:15:00,60.1,-4.5,30.30,South,191,5.8,10.1,7,0.00,,,0.00,WUHU216WMR968SP,2013-05-04 22:15:00,
2013-05-04 18:16:00,60.1,-4.5,30.30,SSW,201,6.3,10.1,7,0.00,,,0.00,WUHU216WMR968SP,2013-05-04 22:16:00,
2013-05-04 18:17:00,60.3,-4.4,30.30,South,181,6.3,10.1,7,0.00,,,0.00,WUHU216WMR968SP,2013-05-04 22:17:00,
2013-05-04 18:18:00,60.4,-4.3,30.30,South,182,2.7,8.7,7,0.00,,,0.00,WUHU216WMR968SP,2013-05-04 22:18:00,
2013-05-04 18:19:00,60.1,-4.5,30.30,South,178,4.5,8.7,7,0.00,,,0.00,WUHU216WMR968SP,2013-05-04 22:19:00,
2013-05-04 18:20:00,60.3,-4.4,30.30,SSE,168,6.3,8.7,7,0.00,,,0.00,WUHU216WMR968SP,2013-05-04 22:20:00,
2013-05-04 18:21:00,60.4,-4.3,30.30,South,190,4.5,8.7,7,0.00,,,0.00,WUHU216WMR968SP,2013-05-04 22:21:00,
2013-05-04 18:22:00,60.6,-4.1,30.30,South,182,5.4,8.7,7,0.00,,,0.00,WUHU216WMR968SP,2013-05-04 22:22:00,
2013-05-04 18:23:00,60.8,-7.0,30.30,South,189,3.6,8.7,6,0.00,,,0.00,WUHU216WMR968SP,2013-05-04 22:23:00,
2013-05-04 18:24:00,60.6,-4.1,30.30,South,178,6.3,11.0,7,0.00,,,0.00,WUHU216WMR968SP,2013-05-04 22:24:00,
2013-05-04 18:25:00,60.8,-7.0,30.30,South,186,5.8,11.0,6,0.00,,,0.00,WUHU216WMR968SP,2013-05-04 22:25:00,
2013-05-04 18:26:00,60.8,-7.0,30.30,South,174,5.8,11.0,6,0.00,,,0.00,WUHU216WMR968SP,2013-05-04 22:26:00,
2013-05-04 18:36:00,61.0,-6.9,30.30,SSE,157,4.9,8.3,6,0.00,,,0.00,WUHU216WMR968SP,2013-05-04 22:36:00,
2013-05-04 18:41:00,59.9,-4.7,30.30,South,176,5.8,8.3,7,0.00,,,0.00,WUHU216WMR968SP,2013-05-04 22:41:00,
2013-05-04 18:46:00,60.1,-4.5,30.30,South,170,4.0,10.1,7,0.00,,,0.00,WUHU216WMR968SP,2013-05-04 22:46:00,
2013-05-04 18:51:00,59.7,-4.8,30.30,South,170,5.8,10.1,7,0.00,,,0.00,WUHU216WMR968SP,2013-05-04 22:51:00,
2013-05-04 18:56:00,59.0,-5.3,30.33,South,180,6.3,8.7,7,0.00,,,0.00,WUHU216WMR968SP,2013-05-04 22:56:00,
2013-05-04 19:01:00,57.9,-6.1,30.33,South,182,5.8,9.2,7,0.00,,,0.00,WUHU216WMR968SP,2013-05-04 23:01:00,
2013-05-04 19:06:00,57.7,-6.3,30.33,SSW,205,4.9,10.5,7,0.00,,,0.00,WUHU216WMR968SP,2013-05-04 23:06:00,
2013-05-04 19:11:00,56.8,-6.9,30.30,South,178,4.9,10.5,7,0.00,,,0.00,WUHU216WMR968SP,2013-05-04 23:11:00,
2013-05-04 19:16:00,55.9,-7.6,30.30,SSW,193,3.1,8.7,7,0.00,,,0.00,WUHU216WMR968SP,2013-05-04 23:16:00,
2013-05-04 19:21:00,54.9,-5.7,30.30,South,181,3.6,8.7,8,0.00,,,0.00,WUHU216WMR968SP,2013-05-04 23:21:00,
2013-05-04 19:26:00,53.2,-6.9,30.30,South,191,3.6,8.3,8,0.00,,,0.00,WUHU216WMR968SP,2013-05-04 23:26:00,
2013-05-04 19:31:00,51.8,-8.0,30.30,SSW,196,4.0,6.3,8,0.00,,,0.00,WUHU216WMR968SP,2013-05-04 23:31:00,
2013-05-04 19:36:00,50.0,-6.9,30.30,South,180,4.5,8.1,9,0.00,,,0.00,WUHU216WMR968SP,2013-05-04 23:36:00,
2013-05-04 19:41:00,48.7,-3.7,30.30,South,182,5.4,8.3,11,0.00,,,0.00,WUHU216WMR968SP,2013-05-04 23:41:00,
2013-05-04 19:46:00,47.8,0.8,30.30,South,184,4.9,8.3,14,0.00,,,0.00,WUHU216WMR968SP,2013-05-04 23:46:00,
2013-05-04 19:51:00,47.3,10.3,30.30,SSW,194,4.5,7.6,22,0.00,,,0.00,WUHU216WMR968SP,2013-05-04 23:51:00,
2013-05-04 19:56:00,46.8,14.4,30.30,SSW,193,3.6,8.3,27,0.00,,,0.00,WUHU216WMR968SP,2013-05-04 23:56:00,
2013-05-04 20:01:00,46.6,15.8,30.30,South,173,4.0,8.3,29,0.00,,,0.00,WUHU216WMR968SP,2013-05-05 00:01:00,
2013-05-04 20:06:00,46.6,17.3,30.30,SSE,165,4.0,8.3,31,0.00,,,0.00,WUHU216WMR968SP,2013-05-05 00:06:00,
2013-05-04 20:11:00,46.6,18.1,30.30,South,182,5.4,8.1,32,0.00,,,0.00,WUHU216WMR968SP,2013-05-05 00:11:00,
2013-05-04 20:16:00,46.4,19.3,30.30,SSW,192,4.5,8.1,34,0.00,,,0.00,WUHU216WMR968SP,2013-05-05 00:16:00,
2013-05-04 20:21:00,46.2,19.8,30.30,SSW,192,4.0,7.6,35,0.00,,,0.00,WUHU216WMR968SP,2013-05-05 00:21:00,
2013-05-04 20:26:00,46.4,20.0,30.30,South,185,4.9,7.6,35,0.00,,,0.00,WUHU216WMR968SP,2013-05-05 00:26:00,
2013-05-04 20:31:00,46.2,20.5,30.30,South,187,3.6,7.2,36,0.00,,,0.00,WUHU216WMR968SP,2013-05-05 00:31:00,
2013-05-04 20:36:00,46.2,20.5,30.30,South,183,4.0,6.3,36,0.00,,,0.00,WUHU216WMR968SP,2013-05-05 00:36:00,
2013-05-04 20:41:00,46.0,19.6,30.30,South,182,4.5,6.3,35,0.00,,,0.00,WUHU216WMR968SP,2013-05-05 00:41:00,
2013-05-04 20:46:00,46.0,20.3,30.30,South,184,4.0,7.6,36,0.00,,,0.00,WUHU216WMR968SP,2013-05-05 00:46:00,
2013-05-04 20:51:00,45.7,20.0,30.30,South,188,0.0,7.6,36,0.00,,,0.00,WUHU216WMR968SP,2013-05-05 00:51:00,
2013-05-04 20:56:00,45.5,20.5,30.30,South,185,0.0,5.4,37,0.00,,,0.00,WUHU216WMR968SP,2013-05-05 00:56:00,
2013-05-04 21:01:00,45.5,20.5,30.30,South,189,4.9,6.3,37,0.00,,,0.00,WUHU216WMR968SP,2013-05-05 01:01:00,
2013-05-04 21:06:00,45.3,20.3,30.30,SSW,196,2.2,6.3,37,0.00,,,0.00,WUHU216WMR968SP,2013-05-05 01:06:00,
2013-05-04 21:11:00,45.3,20.3,30.30,South,185,2.7,6.3,37,0.00,,,0.00,WUHU216WMR968SP,2013-05-05 01:11:00,
2013-05-04 21:16:00,45.3,20.3,30.30,South,180,4.0,6.3,37,0.00,,,0.00,WUHU216WMR968SP,2013-05-05 01:16:00,
2013-05-04 21:21:00,45.5,21.1,30.30,South,181,4.0,6.3,38,0.00,,,0.00,WUHU216WMR968SP,2013-05-05 01:21:00,
2013-05-04 21:26:00,45.9,21.5,30.30,South,184,4.5,5.8,38,0.00,,,0.00,WUHU216WMR968SP,2013-05-05 01:26:00,
2013-05-04 21:31:00,45.5,20.5,30.30,South,174,4.0,6.3,37,0.00,,,0.00,WUHU216WMR968SP,2013-05-05 01:31:00,
2013-05-04 21:36:00,45.5,20.5,30.30,SSW,193,4.0,6.3,37,0.00,,,0.00,WUHU216WMR968SP,2013-05-05 01:36:00,
2013-05-04 21:41:00,45.5,21.1,30.30,South,184,4.5,6.3,38,0.00,,,0.00,WUHU216WMR968SP,2013-05-05 01:41:00,
2013-05-04 21:46:00,45.5,20.5,30.30,South,184,4.0,6.3,37,0.00,,,0.00,WUHU216WMR968SP,2013-05-05 01:46:00,
2013-05-04 21:51:00,45.5,20.5,30.30,SSW,194,2.7,6.3,37,0.00,,,0.00,WUHU216WMR968SP,2013-05-05 01:51:00,
2013-05-04 21:56:00,45.3,20.3,30.30,SSW,196,3.1,5.8,37,0.00,,,0.00,WUHU216WMR968SP,2013-05-05 01:56:00,
2013-05-04 22:01:00,45.0,20.1,30.30,South,185,2.7,5.8,37,0.00,,,0.00,WUHU216WMR968SP,2013-05-05 02:01:00,
2013-05-04 22:06:00,44.6,19.7,30.30,South,189,0.0,4.9,37,0.00,,,0.00,WUHU216WMR968SP,2013-05-05 02:06:00,
2013-05-04 22:11:00,44.8,20.5,30.30,South,184,4.5,5.4,38,0.00,,,0.00,WUHU216WMR968SP,2013-05-05 02:11:00,
2013-05-04 22:16:00,44.8,20.5,30.30,South,183,2.7,5.4,38,0.00,,,0.00,WUHU216WMR968SP,2013-05-05 02:16:00,
2013-05-04 22:21:00,44.8,20.5,30.30,South,190,0.0,5.4,38,0.00,,,0.00,WUHU216WMR968SP,2013-05-05 02:21:00,
2013-05-04 22:26:00,44.4,20.2,30.30,South,190,0.0,5.4,38,0.00,,,0.00,WUHU216WMR968SP,2013-05-05 02:26:00,
2013-05-04 22:31:00,44.1,19.9,30.30,South,190,0.0,0.0,38,0.00,,,0.00,WUHU216WMR968SP,2013-05-05 02:31:00,
2013-05-04 22:36:00,43.7,19.5,30.30,South,190,0.0,0.0,38,0.00,,,0.00,WUHU216WMR968SP,2013-05-05 02:36:00,
2013-05-04 22:41:00,43.5,19.3,30.30,South,190,0.0,0.0,38,0.00,,,0.00,WUHU216WMR968SP,2013-05-05 02:41:00,
2013-05-04 22:46:00,43.5,19.3,30.30,South,190,0.0,0.0,38,0.00,,,0.00,WUHU216WMR968SP,2013-05-05 02:46:00,
2013-05-04 22:49:00,43.3,19.2,30.30,South,190,0.0,0.0,38,0.00,,,0.00,WUHU216WMR968SP,2013-05-05 02:49:00,
2013-05-04 22:50:00,43.3,19.2,30.30,South,169,0.0,0.0,38,0.00,,,0.00,WUHU216WMR968SP,2013-05-05 02:50:00,
2013-05-04 22:51:00,43.5,19.3,30.30,South,169,0.0,0.0,38,0.00,,,0.00,WUHU216WMR968SP,2013-05-05 02:51:00,
2013-05-04 22:52:00,43.5,19.3,30.30,South,169,0.0,0.0,38,0.00,,,0.00,WUHU216WMR968SP,2013-05-05 02:52:00,
2013-05-04 22:53:00,43.7,20.1,30.30,South,187,0.0,3.6,39,0.00,,,0.00,WUHU216WMR968SP,2013-05-05 02:53:00,
2013-05-04 22:54:00,43.9,20.3,30.30,SSE,156,2.2,3.6,39,0.00,,,0.00,WUHU216WMR968SP,2013-05-05 02:54:00,
2013-05-04 22:55:00,44.1,20.5,30.30,South,178,2.2,3.6,39,0.00,,,0.00,WUHU216WMR968SP,2013-05-05 02:55:00,
2013-05-04 22:56:00,44.1,20.5,30.30,South,189,0.0,3.6,39,0.00,,,0.00,WUHU216WMR968SP,2013-05-05 02:56:00,
2013-05-04 22:57:00,44.4,20.8,30.30,SE,145,0.0,4.0,39,0.00,,,0.00,WUHU216WMR968SP,2013-05-05 02:57:00,
2013-05-04 22:58:00,44.4,21.4,30.30,SSE,167,2.7,4.0,40,0.00,,,0.00,WUHU216WMR968SP,2013-05-05 02:58:00,